createdAt,value
2022-10-15T00:01:16.872Z,55.69
2022-10-15T00:03:44.921Z,55.79
2022-10-15T00:06:14.528Z,54.92
2022-10-15T00:08:41.442Z,54.84
2022-10-15T00:11:14.509Z,56.16
2022-10-15T00:13:41.775Z,56.40
2022-10-15T00:16:13.074Z,55.46
2022-10-15T00:18:40.858Z,54.09
2022-10-15T00:21:09.031Z,54.42
2022-10-15T00:23:36.419Z,55.02
2022-10-15T00:26:05.870Z,54.04
2022-10-15T00:28:34.435Z,53.91
2022-10-15T00:33:31.437Z,55.31
2022-10-15T00:36:03.037Z,54.72
2022-10-15T00:38:30.249Z,53.88
2022-10-15T00:40:57.754Z,54.32
2022-10-15T00:43:47.743Z,54.90
2022-10-15T00:46:19.918Z,54.74
2022-10-15T00:48:49.715Z,55.54
2022-10-15T00:51:19.218Z,54.00
2022-10-15T00:53:47.122Z,53.58
2022-10-15T00:56:16.552Z,53.39
2022-10-15T00:58:43.851Z,52.81
2022-10-15T01:01:10.636Z,52.03
2022-10-15T01:03:37.595Z,51.84
2022-10-15T01:06:04.651Z,51.70
2022-10-15T01:08:33.934Z,52.01
2022-10-15T01:11:17.580Z,52.10
2022-10-15T01:13:52.913Z,51.37
2022-10-15T01:16:33.119Z,52.24
2022-10-15T01:19:24.871Z,51.42
2022-10-15T01:22:01.928Z,50.87
2022-10-15T01:24:34.600Z,52.11
2022-10-15T01:27:22.416Z,51.02
2022-10-15T01:30:00.500Z,52.00
2022-10-15T01:32:29.830Z,51.22
2022-10-15T01:35:00.267Z,52.39
2022-10-15T01:37:41.066Z,51.50
2022-10-15T01:40:23.986Z,52.64
2022-10-15T01:42:57.142Z,52.27
2022-10-15T01:45:57.275Z,52.50
2022-10-15T01:48:41.023Z,52.16
2022-10-15T01:51:10.197Z,53.23
2022-10-15T01:53:40.218Z,52.00
2022-10-15T01:56:12.120Z,51.82
2022-10-15T01:58:42.080Z,52.24
2022-10-15T02:01:09.721Z,52.74
2022-10-15T02:03:51.537Z,52.90
2022-10-15T02:06:28.781Z,52.60
2022-10-15T02:09:04.424Z,51.72
2022-10-15T02:11:42.816Z,51.57
2022-10-15T02:14:16.096Z,54.29
2022-10-15T02:16:52.193Z,52.80
2022-10-15T02:19:25.836Z,52.76
2022-10-15T02:22:01.345Z,52.93
2022-10-15T02:24:39.539Z,53.20
2022-10-15T02:27:08.513Z,52.71
2022-10-15T02:29:38.766Z,53.45
2022-10-15T02:32:07.412Z,53.29
2022-10-15T02:34:35.664Z,53.14
2022-10-15T02:37:04.524Z,52.32
2022-10-15T02:39:33.956Z,52.62
2022-10-15T02:42:01.669Z,52.47
2022-10-15T02:44:28.605Z,53.48
2022-10-15T02:46:58.078Z,53.31
2022-10-15T02:49:24.693Z,52.11
2022-10-15T02:51:51.349Z,52.58
2022-10-15T02:54:17.981Z,54.01
2022-10-15T02:56:47.156Z,54.16
2022-10-15T02:59:14.587Z,54.83
2022-10-15T03:01:41.522Z,55.85
2022-10-15T03:04:09.305Z,55.52
2022-10-15T03:06:36.563Z,54.15
2022-10-15T03:09:04.154Z,54.03
2022-10-15T03:11:32.140Z,54.37
2022-10-15T03:13:58.786Z,54.62
2022-10-15T03:16:25.327Z,53.44
2022-10-15T03:18:52.829Z,54.54
2022-10-15T03:21:19.358Z,53.95
2022-10-15T03:23:46.847Z,54.18
2022-10-15T03:26:18.763Z,53.48
2022-10-15T03:28:45.621Z,54.11
2022-10-15T03:31:19.171Z,53.79
2022-10-15T03:33:48.461Z,55.24
2022-10-15T03:36:16.853Z,55.38
2022-10-15T03:38:43.483Z,55.93
2022-10-15T03:41:13.394Z,54.32
2022-10-15T03:43:42.876Z,54.74
2022-10-15T03:46:10.429Z,54.04
2022-10-15T03:48:41.190Z,54.55
2022-10-15T03:51:09.618Z,54.33
2022-10-15T03:53:36.429Z,54.11
2022-10-15T03:56:06.788Z,54.56
2022-10-15T03:58:37.079Z,54.47
2022-10-15T04:01:13.546Z,53.97
2022-10-15T04:03:40.778Z,54.29
2022-10-15T04:06:08.413Z,54.05
2022-10-15T04:08:35.562Z,54.42
2022-10-15T04:11:16.492Z,53.95
2022-10-15T04:13:44.299Z,53.61
2022-10-15T04:16:11.204Z,53.35
2022-10-15T04:18:38.027Z,52.72
2022-10-15T04:21:04.670Z,53.22
2022-10-15T04:23:32.345Z,53.15
2022-10-15T04:26:17.655Z,54.17
2022-10-15T04:28:44.626Z,53.74
2022-10-15T04:31:11.929Z,53.59
2022-10-15T04:33:39.506Z,54.98
2022-10-15T04:36:13.468Z,54.77
2022-10-15T04:38:53.449Z,53.78
2022-10-15T04:41:46.095Z,53.30
2022-10-15T04:44:25.629Z,53.53
2022-10-15T04:46:55.849Z,53.58
2022-10-15T04:49:31.013Z,53.87
2022-10-15T04:51:57.645Z,53.64
2022-10-15T04:54:37.240Z,53.15
2022-10-15T04:57:05.570Z,53.51
2022-10-15T04:59:33.079Z,54.47
2022-10-15T05:02:18.279Z,54.19
2022-10-15T05:04:49.168Z,54.43
2022-10-15T05:07:16.227Z,54.99
2022-10-15T05:09:46.478Z,55.54
2022-10-15T05:12:13.285Z,54.48
2022-10-15T05:14:40.342Z,54.35
2022-10-15T05:17:16.626Z,54.21
2022-10-15T05:19:44.395Z,53.98
2022-10-15T05:22:17.839Z,54.93
2022-10-15T05:24:51.170Z,56.11
2022-10-15T05:27:37.366Z,55.30
2022-10-15T05:30:06.088Z,53.95
2022-10-15T05:32:54.473Z,55.04
2022-10-15T05:35:22.821Z,56.24
2022-10-15T05:37:54.735Z,55.32
2022-10-15T05:40:22.729Z,54.59
2022-10-15T05:43:02.719Z,54.22
2022-10-15T05:45:29.305Z,53.44
2022-10-15T05:48:01.781Z,53.41
2022-10-15T05:50:28.666Z,53.60
2022-10-15T05:52:56.643Z,52.61
2022-10-15T05:55:30.171Z,52.72
2022-10-15T05:58:01.353Z,52.98
2022-10-15T06:00:28.150Z,53.15
2022-10-15T06:02:54.792Z,53.14
2022-10-15T06:05:22.337Z,53.09
2022-10-15T06:07:48.894Z,52.91
2022-10-15T06:10:15.625Z,52.43
2022-10-15T06:12:42.738Z,53.33
2022-10-15T06:15:09.762Z,53.42
2022-10-15T06:17:37.422Z,54.05
2022-10-15T06:20:04.273Z,53.98
2022-10-15T06:22:31.268Z,53.41
2022-10-15T06:24:58.107Z,52.69
2022-10-15T06:27:25.373Z,51.61
2022-10-15T06:29:52.130Z,53.66
2022-10-15T06:32:18.649Z,54.83
2022-10-15T06:34:45.211Z,54.48
2022-10-15T06:37:11.787Z,54.37
2022-10-15T06:39:39.714Z,54.93
2022-10-15T06:42:06.277Z,53.74
2022-10-15T06:44:39.359Z,54.73
2022-10-15T06:47:06.212Z,55.29
2022-10-15T06:49:34.035Z,55.36
2022-10-15T06:52:03.530Z,56.43
2022-10-15T06:54:30.308Z,54.23
2022-10-15T06:56:56.816Z,54.22
2022-10-15T06:59:23.620Z,54.49
2022-10-15T07:01:50.382Z,55.42
2022-10-15T07:04:16.967Z,55.36
2022-10-15T07:06:43.767Z,54.53
2022-10-15T07:09:10.579Z,54.23
2022-10-15T07:11:37.510Z,53.96
2022-10-15T07:14:04.501Z,53.78
2022-10-15T07:16:31.323Z,53.98
2022-10-15T07:18:57.914Z,53.72
2022-10-15T07:21:24.726Z,52.81
2022-10-15T07:23:51.791Z,53.21
2022-10-15T07:26:18.383Z,52.51
2022-10-15T07:28:45.324Z,52.80
2022-10-15T07:31:12.038Z,52.65
2022-10-15T07:33:39.169Z,52.43
2022-10-15T07:36:09.314Z,51.24
2022-10-15T07:38:36.689Z,51.51
2022-10-15T07:41:04.602Z,50.99
2022-10-15T07:43:32.585Z,51.39
2022-10-15T07:45:59.100Z,51.86
2022-10-15T07:48:26.043Z,51.92
2022-10-15T07:51:00.262Z,52.15
2022-10-15T07:53:27.166Z,52.82
2022-10-15T07:56:04.608Z,53.01
2022-10-15T07:58:34.613Z,51.96
2022-10-15T08:01:02.539Z,51.36
2022-10-15T08:03:30.508Z,51.24
2022-10-15T08:06:00.117Z,51.74
2022-10-15T08:08:29.156Z,51.38
2022-10-15T08:10:55.919Z,50.58
2022-10-15T08:13:22.944Z,50.65
2022-10-15T08:15:50.641Z,49.79
2022-10-15T08:18:17.201Z,50.36
2022-10-15T08:20:43.798Z,51.17
2022-10-15T08:23:16.024Z,50.69
2022-10-15T08:25:42.793Z,50.10
2022-10-15T08:28:12.433Z,49.78
2022-10-15T08:30:38.973Z,49.99
2022-10-15T08:33:12.470Z,49.23
2022-10-15T08:35:43.588Z,50.02
2022-10-15T08:38:16.049Z,50.00
2022-10-15T08:40:55.798Z,50.41
2022-10-15T08:43:40.320Z,49.63
2022-10-15T08:46:19.654Z,50.79
2022-10-15T08:48:50.942Z,50.21
2022-10-15T08:51:21.413Z,49.06
2022-10-15T08:53:55.062Z,48.40
2022-10-15T08:56:27.214Z,47.60
2022-10-15T08:58:59.426Z,46.97
2022-10-15T09:01:44.872Z,46.98
2022-10-15T09:04:31.318Z,47.35
2022-10-15T09:07:13.470Z,47.11
2022-10-15T09:09:58.347Z,47.26
2022-10-15T09:13:16.818Z,46.79
2022-10-15T09:16:10.809Z,47.15
2022-10-15T09:18:38.706Z,47.11
2022-10-15T09:21:05.903Z,48.43
2022-10-15T09:23:33.700Z,48.45
2022-10-15T09:26:04.414Z,48.33
2022-10-15T09:28:43.410Z,50.03
2022-10-15T09:31:16.883Z,49.08
2022-10-15T09:33:50.487Z,45.67
2022-10-15T09:36:35.557Z,44.11
2022-10-15T09:39:31.087Z,43.99
2022-10-15T09:42:06.805Z,43.65
2022-10-15T09:44:39.841Z,41.96
2022-10-15T09:47:22.991Z,41.24
2022-10-15T09:49:49.513Z,40.85
2022-10-15T09:52:27.607Z,40.13
2022-10-15T09:55:02.657Z,39.24
2022-10-15T09:57:32.344Z,38.62
2022-10-15T10:00:03.902Z,39.11
2022-10-15T10:02:39.219Z,39.40
2022-10-15T10:05:32.205Z,40.33
2022-10-15T10:08:24.324Z,38.44
2022-10-15T10:10:55.496Z,38.89
2022-10-15T10:13:35.847Z,38.45
2022-10-15T10:16:08.865Z,38.21
2022-10-15T10:18:37.561Z,38.29
2022-10-15T10:21:07.022Z,38.79
2022-10-15T10:23:39.388Z,38.70
2022-10-15T10:26:09.109Z,38.87
2022-10-15T10:28:56.660Z,38.77
2022-10-15T10:31:33.430Z,40.04
2022-10-15T10:34:03.865Z,40.31
2022-10-15T10:36:34.365Z,41.84
2022-10-15T10:39:10.026Z,41.02
2022-10-15T10:42:00.418Z,41.68
2022-10-15T10:44:36.032Z,42.24
2022-10-15T10:47:10.356Z,42.61
2022-10-15T10:49:39.965Z,43.23
2022-10-15T10:52:24.299Z,43.32
2022-10-15T10:55:17.589Z,43.60
2022-10-15T10:57:50.281Z,43.29
2022-10-15T11:00:52.702Z,43.52
2022-10-15T11:03:27.990Z,44.42
2022-10-15T11:06:19.456Z,45.02
2022-10-15T11:09:11.054Z,45.21
2022-10-15T11:11:52.892Z,44.13
2022-10-15T11:14:33.752Z,44.57
2022-10-15T11:17:07.705Z,44.55
2022-10-15T11:20:05.709Z,44.47
2022-10-15T11:22:49.406Z,44.17
2022-10-15T11:25:21.703Z,43.20
2022-10-15T11:28:10.464Z,44.81
2022-10-15T11:30:58.589Z,43.87
2022-10-15T11:33:41.782Z,45.08
2022-10-15T11:36:39.067Z,44.51
2022-10-15T11:39:41.243Z,43.74
2022-10-15T11:42:24.925Z,43.51
2022-10-15T11:45:18.491Z,44.33
2022-10-15T11:47:56.085Z,43.46
2022-10-15T11:50:32.343Z,43.97
2022-10-15T11:53:35.842Z,42.95
2022-10-15T11:56:26.645Z,44.32
2022-10-15T11:59:03.155Z,44.53
2022-10-15T12:01:37.314Z,45.00
2022-10-15T12:04:19.102Z,44.37
2022-10-15T12:06:51.448Z,45.39
2022-10-15T12:09:40.970Z,45.33
2022-10-15T12:12:39.701Z,45.96
2022-10-15T12:15:21.673Z,44.87
2022-10-15T12:17:58.676Z,45.14
2022-10-15T12:20:27.038Z,45.52
2022-10-15T12:22:57.806Z,46.01
2022-10-15T12:25:41.775Z,45.75
2022-10-15T12:28:08.237Z,45.48
2022-10-15T12:30:37.571Z,45.63
2022-10-15T12:33:24.414Z,45.82
2022-10-15T12:35:57.218Z,45.51
2022-10-15T12:38:33.348Z,45.91
2022-10-15T12:41:08.079Z,45.82
2022-10-15T12:43:38.375Z,44.95
2022-10-15T12:46:07.583Z,46.42
2022-10-15T12:48:47.211Z,47.49
2022-10-15T12:51:16.711Z,47.12
2022-10-15T12:53:45.167Z,46.35
2022-10-15T12:56:11.869Z,45.47
2022-10-15T12:58:42.076Z,45.24
2022-10-15T13:01:14.438Z,45.72
2022-10-15T13:03:53.497Z,45.98
2022-10-15T13:06:19.971Z,44.98
2022-10-15T13:09:12.144Z,44.79
2022-10-15T13:14:39.910Z,44.10
2022-10-15T13:17:15.781Z,44.36
2022-10-15T13:20:04.481Z,45.77
2022-10-15T13:22:33.062Z,47.19
2022-10-15T13:25:00.021Z,46.19
2022-10-15T13:27:29.341Z,45.76
2022-10-15T13:30:02.109Z,45.87
2022-10-15T13:32:43.589Z,47.10
2022-10-15T13:35:13.395Z,48.73
2022-10-15T13:37:42.753Z,47.97
2022-10-15T13:40:22.945Z,47.14
2022-10-15T13:43:00.515Z,46.52
2022-10-15T13:45:27.605Z,45.93
2022-10-15T13:47:54.925Z,47.53
2022-10-15T13:50:27.753Z,46.39
2022-10-15T13:53:00.305Z,46.96
2022-10-15T13:55:29.054Z,46.00
2022-10-15T13:58:01.718Z,46.30
2022-10-15T14:00:32.411Z,46.88
2022-10-15T14:03:22.093Z,45.05
2022-10-15T14:05:51.024Z,46.09
2022-10-15T14:08:19.258Z,47.10
2022-10-15T14:10:46.936Z,46.35
2022-10-15T14:13:13.729Z,46.57
2022-10-15T14:15:41.333Z,46.63
2022-10-15T14:18:08.659Z,46.79
2022-10-15T14:20:35.221Z,46.61
2022-10-15T14:23:02.160Z,45.76
2022-10-15T14:25:28.755Z,46.00
2022-10-15T14:27:55.713Z,45.36
2022-10-15T14:30:30.557Z,46.12
2022-10-15T14:32:57.287Z,46.18
2022-10-15T14:35:25.447Z,45.93
2022-10-15T14:38:02.447Z,46.63
2022-10-15T14:40:29.348Z,45.38
2022-10-15T14:42:55.814Z,46.47
2022-10-15T14:45:31.686Z,46.85
2022-10-15T14:48:01.029Z,47.17
2022-10-15T14:50:33.717Z,49.40
2022-10-15T14:53:05.254Z,50.11
2022-10-15T14:55:38.148Z,49.26
2022-10-15T14:58:09.868Z,48.77
2022-10-15T15:00:43.050Z,48.85
2022-10-15T15:03:40.011Z,49.12
2022-10-15T15:06:07.576Z,51.65
2022-10-15T15:08:34.134Z,51.29
2022-10-15T15:11:03.909Z,49.95
2022-10-15T15:13:38.667Z,52.69
2022-10-15T15:16:05.549Z,51.65
2022-10-15T15:18:32.172Z,51.36
2022-10-15T15:21:03.122Z,50.91
2022-10-15T15:23:30.269Z,49.67
2022-10-15T15:25:57.043Z,48.37
2022-10-15T15:28:26.585Z,49.96
2022-10-15T15:30:58.663Z,49.78
2022-10-15T15:33:28.155Z,50.29
2022-10-15T15:36:05.280Z,49.74
2022-10-15T15:38:32.178Z,49.76
2022-10-15T15:41:13.070Z,49.33
2022-10-15T15:43:40.012Z,49.11
2022-10-15T15:46:07.195Z,48.25
2022-10-15T15:48:34.161Z,49.73
2022-10-15T15:51:07.381Z,48.99
2022-10-15T15:53:35.257Z,50.54
2022-10-15T15:56:01.868Z,50.79
2022-10-15T15:58:28.854Z,53.08
2022-10-15T16:00:55.381Z,54.16
2022-10-15T16:03:21.967Z,53.13
2022-10-15T16:08:21.476Z,53.93
2022-10-15T16:10:48.032Z,53.41
2022-10-15T16:13:14.682Z,52.78
2022-10-15T16:15:41.689Z,53.06
2022-10-15T16:18:09.177Z,53.79
2022-10-15T16:20:39.221Z,53.72
2022-10-15T16:23:05.898Z,54.27
2022-10-15T16:25:32.983Z,53.94
2022-10-15T16:28:02.037Z,53.98
2022-10-15T16:30:29.033Z,53.79
2022-10-15T16:32:55.848Z,53.53
2022-10-15T16:35:22.785Z,56.08
2022-10-15T16:37:52.461Z,55.98
2022-10-15T16:40:19.449Z,56.65
2022-10-15T16:42:46.193Z,55.81
2022-10-15T16:45:12.766Z,54.40
2022-10-15T16:47:39.374Z,54.50
2022-10-15T16:50:06.773Z,54.87
2022-10-15T16:52:34.145Z,54.29
2022-10-15T16:55:00.652Z,55.08
2022-10-15T16:57:27.222Z,54.98
2022-10-15T16:59:53.773Z,56.02
2022-10-15T17:02:20.297Z,56.83
2022-10-15T17:04:46.938Z,56.58
2022-10-15T17:07:13.462Z,56.38
2022-10-15T17:09:40.238Z,55.87
2022-10-15T17:12:06.879Z,55.46
2022-10-15T17:14:33.441Z,55.57
2022-10-15T17:17:00.459Z,54.91
2022-10-15T17:19:30.383Z,55.11
2022-10-15T17:21:59.857Z,54.27
2022-10-15T17:24:26.410Z,53.31
2022-10-15T17:26:54.659Z,53.72
2022-10-15T17:29:22.916Z,53.98
2022-10-15T17:31:50.774Z,54.26
2022-10-15T17:34:17.966Z,56.16
2022-10-15T17:36:47.282Z,55.28
2022-10-15T17:39:19.985Z,54.88
2022-10-15T17:41:47.563Z,56.49
2022-10-15T17:44:14.637Z,57.31
2022-10-15T17:46:41.887Z,57.87
2022-10-15T17:49:11.147Z,57.02
2022-10-15T17:51:39.375Z,57.47
2022-10-15T17:54:06.164Z,57.36
2022-10-15T17:56:34.691Z,57.12
2022-10-15T17:59:04.660Z,56.99
2022-10-15T18:01:56.230Z,55.64
2022-10-15T18:04:20.436Z,56.96
2022-10-15T18:06:46.971Z,56.43
2022-10-15T18:09:24.501Z,56.29
2022-10-15T18:11:55.555Z,57.06
2022-10-15T18:14:28.741Z,55.88
2022-10-15T18:16:55.720Z,56.89
2022-10-15T18:19:22.354Z,56.29
2022-10-15T18:21:49.675Z,54.99
2022-10-15T18:24:21.061Z,55.34
2022-10-15T18:26:48.854Z,54.85
2022-10-15T18:29:15.827Z,54.75
2022-10-15T18:31:43.459Z,55.24
2022-10-15T18:34:10.264Z,55.46
2022-10-15T18:36:37.748Z,54.95
2022-10-15T18:39:04.498Z,54.34
2022-10-15T18:41:33.647Z,54.59
2022-10-15T18:44:03.298Z,54.20
2022-10-15T18:46:33.923Z,54.63
2022-10-15T18:49:02.225Z,54.64
2022-10-15T18:51:31.244Z,54.53
2022-10-15T18:54:00.019Z,54.23
2022-10-15T18:56:26.839Z,54.01
2022-10-15T18:58:54.538Z,53.94
2022-10-15T19:01:36.522Z,54.24
2022-10-15T19:04:06.361Z,54.86
2022-10-15T19:06:39.757Z,55.22
2022-10-15T19:09:09.033Z,55.59
2022-10-15T19:11:36.508Z,55.58
2022-10-15T19:14:03.733Z,54.72
2022-10-15T19:16:30.516Z,54.09
2022-10-15T19:19:03.028Z,53.96
2022-10-15T19:21:29.676Z,53.34
2022-10-15T19:23:56.506Z,53.61
2022-10-15T19:26:23.345Z,53.53
2022-10-15T19:28:51.976Z,54.33
2022-10-15T19:31:27.946Z,53.96
2022-10-15T19:33:55.646Z,55.02
2022-10-15T19:36:24.286Z,54.94
2022-10-15T19:38:51.492Z,55.16
2022-10-15T19:41:19.006Z,55.26
2022-10-15T19:43:45.877Z,55.80
2022-10-15T19:46:12.464Z,54.62
2022-10-15T19:48:41.393Z,55.67
2022-10-15T19:51:08.337Z,55.40
2022-10-15T19:53:35.443Z,57.40
2022-10-15T19:56:08.157Z,57.30
2022-10-15T19:58:35.405Z,57.62
2022-10-15T20:01:02.844Z,56.62
2022-10-15T20:03:30.218Z,57.69
2022-10-15T20:06:00.465Z,56.87
2022-10-15T20:08:27.085Z,56.36
2022-10-15T20:10:53.710Z,55.69
2022-10-15T20:13:22.619Z,56.22
2022-10-15T20:15:51.643Z,55.21
2022-10-15T20:18:19.397Z,54.52
2022-10-15T20:20:46.513Z,55.21
2022-10-15T20:23:15.506Z,55.34
2022-10-15T20:25:42.826Z,55.08
2022-10-15T20:28:11.111Z,55.06
2022-10-15T20:30:38.850Z,55.16
2022-10-15T20:33:06.770Z,54.72
2022-10-15T20:35:35.014Z,55.18
2022-10-15T20:38:02.056Z,55.03
2022-10-15T20:40:29.133Z,54.38
2022-10-15T20:42:55.986Z,55.54
2022-10-15T20:45:23.379Z,55.59
2022-10-15T20:47:51.874Z,55.25
2022-10-15T20:50:24.637Z,56.14
2022-10-15T20:52:51.817Z,55.77
2022-10-15T20:55:18.853Z,54.70
2022-10-15T20:57:46.016Z,56.32
2022-10-15T21:00:13.564Z,54.81
2022-10-15T21:02:41.565Z,55.53
2022-10-15T21:05:09.431Z,55.67
2022-10-15T21:07:36.107Z,55.76
2022-10-15T21:10:02.874Z,55.55
2022-10-15T21:12:29.749Z,54.85
2022-10-15T21:14:57.084Z,55.41
2022-10-15T21:17:24.476Z,55.39
2022-10-15T21:19:52.979Z,54.01
2022-10-15T21:22:20.548Z,52.97
2022-10-15T21:24:47.621Z,53.59
2022-10-15T21:27:14.539Z,53.50
2022-10-15T21:29:42.717Z,52.80
2022-10-15T21:32:09.561Z,52.92
2022-10-15T21:34:36.193Z,53.55
2022-10-15T21:37:03.072Z,52.72
2022-10-15T21:39:29.793Z,52.22
2022-10-15T21:41:56.450Z,51.75
2022-10-15T21:44:23.027Z,52.24
2022-10-15T21:46:49.593Z,52.07
2022-10-15T21:49:16.139Z,51.34
2022-10-15T21:51:42.702Z,50.81
2022-10-15T21:54:09.472Z,50.96
2022-10-15T21:56:36.778Z,50.96
2022-10-15T21:59:04.413Z,51.82
2022-10-15T22:01:35.234Z,51.19
2022-10-15T22:04:04.647Z,51.84
2022-10-15T22:06:32.113Z,51.80
2022-10-15T22:08:59.781Z,51.37
2022-10-15T22:11:29.168Z,51.70
2022-10-15T22:13:58.233Z,51.06
2022-10-15T22:16:27.026Z,50.97
2022-10-15T22:18:55.054Z,50.80
2022-10-15T22:21:25.411Z,50.57
2022-10-15T22:23:59.755Z,49.99
2022-10-15T22:26:32.801Z,49.49
2022-10-15T22:29:01.995Z,50.54
2022-10-15T22:31:29.449Z,49.91
2022-10-15T22:33:58.400Z,50.12
2022-10-15T22:36:27.915Z,50.51
2022-10-15T22:41:30.454Z,50.91
2022-10-15T22:43:57.775Z,49.93
2022-10-15T22:46:25.059Z,50.49
2022-10-15T22:48:53.651Z,50.22
2022-10-15T22:51:21.342Z,50.01
2022-10-15T22:53:48.130Z,50.04
2022-10-15T22:56:18.082Z,51.07
2022-10-15T22:58:45.665Z,52.51
2022-10-15T23:01:14.073Z,52.08
2022-10-15T23:03:43.383Z,52.62
2022-10-15T23:06:10.817Z,51.67
2022-10-15T23:08:37.898Z,52.10
2022-10-15T23:11:19.222Z,52.26
2022-10-15T23:13:47.909Z,52.13
2022-10-15T23:16:17.834Z,51.74
2022-10-15T23:18:47.207Z,51.26
2022-10-15T23:21:17.074Z,50.72
2022-10-15T23:23:44.718Z,50.54
2022-10-15T23:26:13.711Z,50.69
2022-10-15T23:28:41.586Z,50.98
2022-10-15T23:31:15.223Z,50.42
2022-10-15T23:33:41.918Z,50.17
2022-10-15T23:36:09.467Z,50.20
2022-10-15T23:38:35.992Z,49.92
2022-10-15T23:41:07.547Z,49.45
2022-10-15T23:43:34.657Z,49.11
2022-10-15T23:46:01.301Z,49.44
2022-10-15T23:48:28.770Z,49.48
2022-10-15T23:51:00.890Z,49.41
2022-10-15T23:53:32.673Z,49.54
2022-10-15T23:56:01.773Z,49.09
2022-10-15T23:58:28.432Z,49.42
